createdAt,value
2022-09-03T00:01:38.229Z,34.03
2022-09-03T00:04:25.771Z,43.05
2022-09-03T00:07:04.692Z,40.63
2022-09-03T00:09:45.786Z,34.28
2022-09-03T00:12:29.286Z,31.83
2022-09-03T00:15:17.478Z,35.75
2022-09-03T00:17:58.321Z,36.33
2022-09-03T00:20:43.574Z,33.72
2022-09-03T00:23:23.751Z,39.05
2022-09-03T00:26:21.144Z,38.97
2022-09-03T00:29:01.176Z,37.00
2022-09-03T00:34:45.704Z,41.67
2022-09-03T00:37:18.859Z,37.35
2022-09-03T00:39:49.189Z,40.67
2022-09-03T00:42:49.912Z,41.67
2022-09-03T00:45:36.590Z,43.33
2022-09-03T00:48:28.139Z,34.95
2022-09-03T00:51:37.697Z,36.67
2022-09-03T00:54:37.674Z,45.23
2022-09-03T01:00:13.314Z,34.90
2022-09-03T01:03:18.361Z,39.45
2022-09-03T01:06:07.653Z,41.60
2022-09-03T01:09:05.228Z,44.63
2022-09-03T01:11:59.142Z,48.13
2022-09-03T01:14:49.756Z,39.88
2022-09-03T01:17:38.667Z,45.08
2022-09-03T01:20:29.155Z,38.88
2022-09-03T01:23:31.467Z,43.63
2022-09-03T01:26:31.937Z,46.22
2022-09-03T01:29:19.359Z,40.60
2022-09-03T01:32:09.841Z,41.70
2022-09-03T01:34:56.558Z,40.45
2022-09-03T01:38:02.102Z,47.80
2022-09-03T01:41:25.048Z,45.45
2022-09-03T01:44:25.690Z,35.13
2022-09-03T01:47:13.253Z,39.00
2022-09-03T01:50:03.203Z,43.17
2022-09-03T01:55:53.970Z,43.63
2022-09-03T01:58:33.440Z,44.03
2022-09-03T02:01:09.889Z,45.80
2022-09-03T02:03:44.842Z,44.33
2022-09-03T02:06:15.860Z,47.28
2022-09-03T02:08:46.962Z,48.15
2022-09-03T02:11:17.360Z,43.08
2022-09-03T02:13:53.307Z,42.25
2022-09-03T02:16:27.065Z,43.13
2022-09-03T02:19:04.813Z,44.53
2022-09-03T02:21:39.163Z,48.65
2022-09-03T02:24:11.526Z,40.08
2022-09-03T02:26:41.861Z,43.72
2022-09-03T02:29:12.267Z,42.22
2022-09-03T02:31:42.863Z,48.00
2022-09-03T02:34:13.968Z,48.63
2022-09-03T02:36:50.245Z,49.35
2022-09-03T02:39:21.423Z,42.28
2022-09-03T02:42:00.677Z,51.55
2022-09-03T02:44:36.366Z,48.55
2022-09-03T02:47:12.666Z,53.47
2022-09-03T02:49:45.201Z,45.38
2022-09-03T02:52:16.826Z,43.22
2022-09-03T02:54:47.902Z,47.03
2022-09-03T02:57:27.460Z,43.38
2022-09-03T02:59:58.911Z,52.80
2022-09-03T03:02:30.047Z,48.20
2022-09-03T03:05:01.127Z,40.95
2022-09-03T03:07:35.513Z,38.63
2022-09-03T03:10:05.959Z,40.30
2022-09-03T03:12:38.461Z,43.70
2022-09-03T03:15:09.904Z,39.90
2022-09-03T03:17:41.392Z,51.80
2022-09-03T03:20:15.016Z,38.00
2022-09-03T03:22:48.091Z,43.00
2022-09-03T03:25:19.001Z,38.88
2022-09-03T03:27:52.993Z,44.95
2022-09-03T03:30:23.447Z,41.80
2022-09-03T03:32:57.765Z,47.13
2022-09-03T03:35:28.914Z,43.92
2022-09-03T03:38:06.754Z,44.97
2022-09-03T03:40:38.302Z,40.38
2022-09-03T03:43:10.801Z,39.33
2022-09-03T03:45:44.746Z,44.30
2022-09-03T03:48:15.887Z,49.58
2022-09-03T03:50:46.481Z,42.22
2022-09-03T03:53:20.193Z,49.28
2022-09-03T03:55:59.038Z,36.70
2022-09-03T03:58:31.144Z,49.30
2022-09-03T04:01:19.166Z,41.67
2022-09-03T04:03:50.053Z,40.60
2022-09-03T04:06:22.261Z,45.85
2022-09-03T04:08:53.460Z,39.22
2022-09-03T04:11:27.023Z,41.92
2022-09-03T04:13:58.658Z,38.05
2022-09-03T04:16:30.224Z,35.67
2022-09-03T04:19:01.817Z,37.53
2022-09-03T04:21:33.871Z,35.38
2022-09-03T04:24:06.940Z,33.05
2022-09-03T04:26:37.756Z,36.65
2022-09-03T04:29:10.542Z,33.70
2022-09-03T04:32:01.227Z,38.13
2022-09-03T04:34:31.737Z,38.55
2022-09-03T04:37:02.095Z,42.40
2022-09-03T04:39:33.168Z,35.40
2022-09-03T04:42:03.473Z,38.20
2022-09-03T04:44:34.976Z,39.05
2022-09-03T04:47:05.840Z,36.83
2022-09-03T04:49:36.822Z,37.00
2022-09-03T04:52:07.190Z,48.95
2022-09-03T04:54:37.617Z,38.55
2022-09-03T04:57:08.057Z,38.63
2022-09-03T04:59:41.176Z,40.30
2022-09-03T05:02:12.125Z,40.15
2022-09-03T05:04:42.575Z,40.08
2022-09-03T05:07:18.364Z,37.58
2022-09-03T05:09:51.024Z,46.97
2022-09-03T05:12:21.352Z,49.92
2022-09-03T05:14:51.609Z,37.65
2022-09-03T05:17:22.162Z,33.72
2022-09-03T05:19:52.632Z,39.65
2022-09-03T05:22:23.911Z,38.85
2022-09-03T05:24:55.365Z,34.63
2022-09-03T05:27:26.223Z,29.05
2022-09-03T05:34:49.776Z,32.53
2022-09-03T05:37:20.374Z,31.83
2022-09-03T05:39:50.914Z,32.35
2022-09-03T05:42:21.886Z,40.15
2022-09-03T05:44:52.410Z,31.48
2022-09-03T05:47:22.865Z,38.17
2022-09-03T05:49:53.148Z,31.83
2022-09-03T05:52:26.101Z,27.83
2022-09-03T05:54:56.587Z,31.30
2022-09-03T05:57:28.505Z,27.80
2022-09-03T06:00:00.088Z,22.45
2022-09-03T06:02:31.696Z,32.97
2022-09-03T06:05:02.578Z,30.58
2022-09-03T06:07:33.419Z,29.77
2022-09-03T06:10:03.687Z,24.15
2022-09-03T06:12:34.001Z,18.77
2022-09-03T06:15:04.333Z,20.92
2022-09-03T06:17:37.255Z,23.90
2022-09-03T06:20:08.132Z,34.75
2022-09-03T06:22:38.548Z,31.02
2022-09-03T06:25:09.801Z,30.40
2022-09-03T06:27:40.534Z,30.77
2022-09-03T06:30:11.923Z,29.20
2022-09-03T06:32:50.297Z,34.83
2022-09-03T06:35:21.333Z,29.33
2022-09-03T06:37:51.803Z,27.38
2022-09-03T06:40:24.712Z,26.23
2022-09-03T06:43:04.540Z,24.83
2022-09-03T06:45:34.865Z,27.42
2022-09-03T06:48:05.422Z,22.48
2022-09-03T07:03:37.923Z,29.00
2022-09-03T07:06:12.341Z,28.05
2022-09-03T07:27:00.276Z,24.40
2022-09-03T07:29:31.178Z,24.92
2022-09-03T07:32:02.137Z,30.95
2022-09-03T07:34:32.442Z,27.15
2022-09-03T07:37:03.004Z,25.38
2022-09-03T07:39:35.632Z,22.35
2022-09-03T07:42:06.535Z,19.83
2022-09-03T07:44:37.159Z,37.15
2022-09-03T07:47:08.494Z,27.00
2022-09-03T07:49:39.347Z,27.02
2022-09-03T07:52:11.924Z,28.52
2022-09-03T07:54:45.023Z,28.38
2022-09-03T07:57:17.640Z,29.30
2022-09-03T07:59:48.574Z,21.38
2022-09-03T08:02:19.043Z,20.42
2022-09-03T08:54:45.593Z,30.35
2022-09-03T08:57:17.455Z,22.38
2022-09-03T08:59:48.157Z,30.73
2022-09-03T09:02:37.040Z,29.13
2022-09-03T09:05:28.807Z,23.95
2022-09-03T09:08:11.866Z,39.90
2022-09-03T09:10:50.471Z,23.67
2022-09-03T09:41:41.447Z,28.05
2022-09-03T09:44:21.167Z,32.65
2022-09-03T09:46:54.941Z,23.65
2022-09-03T09:49:46.256Z,27.02
2022-09-03T09:52:19.140Z,27.08
2022-09-03T09:54:49.413Z,26.02
2022-09-03T09:57:26.608Z,25.77
2022-09-03T10:00:14.610Z,27.25
2022-09-03T10:02:56.415Z,24.83
2022-09-03T10:05:32.960Z,29.65
2022-09-03T10:08:07.351Z,31.77
2022-09-03T10:10:44.623Z,26.70
2022-09-03T10:13:26.447Z,26.33
2022-09-03T10:16:07.317Z,30.45
2022-09-03T10:18:47.902Z,36.22
2022-09-03T10:21:23.322Z,29.38
2022-09-03T10:24:31.506Z,53.17
2022-09-03T10:27:01.781Z,34.63
2022-09-03T10:29:32.303Z,32.15
2022-09-03T10:32:43.842Z,32.60
2022-09-03T10:35:35.751Z,32.08
2022-09-03T10:38:24.950Z,33.08
2022-09-03T10:41:22.337Z,32.63
2022-09-03T10:44:13.659Z,30.58
2022-09-03T10:47:06.416Z,28.10
2022-09-03T10:49:58.624Z,30.48
2022-09-03T10:52:51.704Z,34.78
2022-09-03T10:55:42.740Z,28.80
2022-09-03T10:58:45.908Z,29.85
2022-09-03T11:01:50.615Z,34.25
2022-09-03T11:04:51.557Z,38.08
2022-09-03T11:07:28.083Z,40.20
2022-09-03T11:10:16.754Z,32.47
2022-09-03T11:12:53.112Z,38.07
2022-09-03T11:15:33.471Z,33.67
2022-09-03T11:18:38.029Z,32.42
2022-09-03T11:21:14.944Z,43.60
2022-09-03T11:23:55.264Z,37.33
2022-09-03T11:26:28.501Z,40.63
2022-09-03T11:29:23.409Z,38.03
2022-09-03T11:32:13.032Z,39.83
2022-09-03T11:37:27.755Z,41.00
2022-09-03T11:40:01.850Z,41.20
2022-09-03T11:42:43.664Z,40.75
2022-09-03T11:45:40.569Z,54.42
2022-09-03T11:48:48.348Z,63.33
2022-09-03T11:51:40.142Z,35.10
2022-09-03T11:54:28.377Z,28.98
2022-09-03T11:57:16.784Z,24.70
2022-09-03T11:59:48.055Z,31.50
2022-09-03T12:02:37.976Z,35.33
2022-09-03T12:05:40.394Z,30.58
2022-09-03T12:08:36.580Z,29.35
2022-09-03T12:11:44.019Z,36.03
2022-09-03T12:14:43.964Z,31.95
2022-09-03T12:17:33.467Z,32.53
2022-09-03T12:20:03.853Z,31.52
2022-09-03T12:22:40.854Z,29.27
2022-09-03T12:25:17.569Z,33.00
2022-09-03T12:27:49.342Z,32.72
2022-09-03T12:30:22.232Z,43.25
2022-09-03T12:32:53.404Z,39.40
2022-09-03T12:38:26.680Z,33.63
2022-09-03T12:44:01.013Z,37.78
2022-09-03T12:46:34.685Z,40.78
2022-09-03T12:52:12.013Z,37.25
2022-09-03T12:55:03.830Z,36.08
2022-09-03T12:57:46.226Z,44.58
2022-09-03T13:00:21.821Z,54.30
2022-09-03T13:03:13.721Z,53.45
2022-09-03T13:05:52.747Z,40.28
2022-09-03T13:08:29.179Z,40.72
2022-09-03T13:11:03.815Z,42.65
2022-09-03T13:13:39.956Z,47.45
2022-09-03T13:16:45.431Z,48.63
2022-09-03T13:19:49.885Z,51.72
2022-09-03T13:22:49.510Z,55.60
2022-09-03T13:25:37.491Z,49.13
2022-09-03T13:28:35.533Z,53.13
2022-09-03T13:31:42.388Z,56.65
2022-09-03T13:34:34.848Z,38.65
2022-09-03T13:37:34.315Z,42.75
2022-09-03T13:40:33.721Z,44.65
2022-09-03T13:43:25.185Z,54.65
2022-09-03T13:46:14.384Z,48.33
2022-09-03T13:49:04.099Z,52.83
2022-09-03T13:51:59.288Z,52.63
2022-09-03T13:54:48.551Z,53.65
2022-09-03T13:57:47.327Z,58.47
2022-09-03T14:00:30.033Z,50.10
2022-09-03T14:03:26.850Z,49.75
2022-09-03T14:06:24.184Z,41.35
2022-09-03T14:09:24.537Z,43.47
2022-09-03T14:12:33.840Z,52.80
2022-09-03T14:15:44.862Z,44.17
2022-09-03T14:18:41.306Z,51.45
2022-09-03T14:21:27.539Z,40.05
2022-09-03T14:24:18.628Z,43.88
2022-09-03T14:26:58.666Z,56.22
2022-09-03T14:29:34.169Z,53.88
2022-09-03T14:32:30.287Z,58.67
2022-09-03T14:35:16.210Z,51.00
2022-09-03T14:38:25.172Z,47.88
2022-09-03T14:41:23.520Z,45.50
2022-09-03T14:44:25.295Z,55.97
2022-09-03T14:47:18.147Z,60.88
2022-09-03T14:50:13.913Z,55.38
2022-09-03T14:53:22.137Z,54.50
2022-09-03T14:56:13.522Z,55.20
2022-09-03T14:59:12.595Z,44.70
2022-09-03T15:01:43.412Z,50.97
2022-09-03T15:04:47.848Z,50.75
2022-09-03T15:07:35.301Z,54.22
2022-09-03T15:10:23.222Z,51.55
2022-09-03T15:13:01.893Z,46.05
2022-09-03T15:15:57.455Z,47.30
2022-09-03T15:18:54.899Z,42.15
2022-09-03T15:22:05.559Z,32.22
2022-09-03T15:25:05.850Z,36.50
2022-09-03T15:27:55.369Z,42.38
2022-09-03T15:30:25.900Z,43.60
2022-09-03T15:33:26.733Z,48.78
2022-09-03T15:36:19.795Z,49.70
2022-09-03T15:39:09.013Z,40.88
2022-09-03T15:42:00.425Z,41.55
2022-09-03T15:44:43.534Z,39.53
2022-09-03T15:47:25.792Z,39.20
2022-09-03T15:50:11.002Z,43.63
2022-09-03T15:52:56.281Z,52.65
2022-09-03T15:55:47.124Z,53.80
2022-09-03T15:58:40.314Z,43.55
2022-09-03T16:01:39.706Z,42.88
2022-09-03T16:04:30.559Z,42.38
2022-09-03T16:07:20.345Z,41.20
2022-09-03T16:13:31.872Z,41.08
2022-09-03T16:16:09.872Z,40.75
2022-09-03T16:18:49.997Z,37.65
2022-09-03T16:21:41.352Z,45.38
2022-09-03T16:24:28.511Z,34.55
2022-09-03T16:27:21.867Z,39.40
2022-09-03T16:30:14.339Z,30.17
2022-09-03T16:33:06.243Z,35.15
2022-09-03T16:36:13.851Z,27.23
2022-09-03T16:39:09.804Z,27.60
2022-09-03T16:42:08.874Z,25.40
2022-09-03T16:45:14.639Z,22.17
2022-09-03T16:48:04.936Z,32.60
2022-09-03T16:51:08.511Z,34.35
2022-09-03T16:54:06.637Z,26.85
2022-09-03T16:57:01.393Z,23.65
2022-09-03T16:59:54.295Z,26.73
2022-09-03T17:02:42.165Z,21.67
2022-09-03T17:05:47.214Z,26.35
2022-09-03T17:08:37.110Z,20.85
2022-09-03T17:11:34.129Z,15.18
2022-09-03T17:14:28.062Z,17.42
2022-09-03T17:17:25.726Z,19.33
2022-09-03T17:20:19.781Z,18.08
2022-09-03T17:23:19.271Z,18.67
2022-09-03T17:26:08.766Z,16.20
2022-09-03T17:29:10.645Z,20.58
2022-09-03T17:32:14.126Z,22.08
2022-09-03T17:35:13.392Z,21.15
2022-09-03T17:38:00.716Z,18.85
2022-09-03T17:40:57.944Z,17.90
2022-09-03T17:43:45.433Z,16.13
2022-09-03T17:46:52.098Z,21.00
2022-09-03T17:49:30.222Z,19.65
2022-09-03T17:52:22.440Z,18.55
2022-09-03T17:54:57.808Z,12.68
2022-09-03T17:57:48.396Z,13.32
2022-09-03T18:00:33.687Z,15.27
2022-09-03T18:03:27.555Z,14.63
2022-09-03T18:06:04.214Z,13.30
2022-09-03T18:08:57.628Z,13.13
2022-09-03T18:11:42.344Z,14.38
2022-09-03T18:14:45.058Z,14.35
2022-09-03T18:17:45.574Z,18.45
2022-09-03T18:20:34.869Z,14.73
2022-09-03T18:23:25.412Z,14.70
2022-09-03T18:26:15.575Z,15.80
2022-09-03T18:29:06.017Z,17.40
2022-09-03T18:31:56.284Z,16.75
2022-09-03T18:34:46.619Z,15.50
2022-09-03T18:37:36.864Z,15.32
2022-09-03T18:40:27.232Z,18.58
2022-09-03T18:43:47.603Z,21.38
2022-09-03T18:50:28.260Z,30.08
2022-09-03T18:53:18.677Z,19.40
2022-09-03T18:56:18.882Z,19.27
2022-09-03T18:59:29.387Z,19.10
2022-09-03T19:02:19.723Z,19.65
2022-09-03T19:05:30.021Z,20.27
2022-09-03T19:08:40.312Z,16.10
2022-09-03T19:11:55.426Z,18.98
2022-09-03T19:15:01.004Z,17.85
2022-09-03T19:18:01.531Z,21.15
2022-09-03T19:20:51.689Z,19.52
2022-09-03T19:23:32.062Z,20.52
2022-09-03T19:26:42.277Z,22.08
2022-09-03T19:29:52.817Z,21.92
2022-09-03T19:32:42.968Z,17.83
2022-09-03T19:35:33.343Z,17.40
2022-09-03T19:38:43.732Z,14.82
2022-09-03T19:41:44.092Z,16.83
2022-09-03T19:45:04.401Z,18.55
2022-09-03T19:48:04.783Z,19.92
2022-09-03T19:50:55.031Z,25.13
2022-09-03T19:53:45.435Z,16.42
2022-09-03T19:56:45.729Z,17.27
2022-09-03T19:59:36.150Z,14.90
2022-09-03T20:02:26.280Z,16.67
2022-09-03T20:05:16.863Z,14.15
2022-09-03T20:08:06.991Z,18.17
2022-09-03T20:10:39.048Z,18.05
2022-09-03T20:13:19.314Z,16.58
2022-09-03T20:16:11.963Z,15.43
2022-09-03T20:18:58.836Z,15.50
2022-09-03T20:21:51.954Z,12.73
2022-09-03T20:24:45.715Z,14.25
2022-09-03T20:27:31.271Z,18.35
2022-09-03T20:30:07.891Z,14.30
2022-09-03T20:32:54.257Z,19.15
2022-09-03T20:35:40.364Z,14.77
2022-09-03T20:38:49.720Z,17.65
2022-09-03T20:41:41.481Z,16.13
2022-09-03T20:44:31.747Z,14.43
2022-09-03T20:47:41.650Z,16.25
2022-09-03T20:53:23.194Z,15.45
2022-09-03T20:55:59.812Z,21.83
2022-09-03T20:58:48.039Z,22.60
2022-09-03T21:01:32.868Z,17.30
2022-09-03T21:04:37.625Z,14.32
2022-09-03T21:07:44.430Z,14.15
2022-09-03T21:10:40.866Z,15.27
2022-09-03T21:13:29.715Z,18.65
2022-09-03T21:16:30.191Z,14.32
2022-09-03T21:19:39.775Z,19.35
2022-09-03T21:22:44.755Z,17.83
2022-09-03T21:25:22.835Z,16.83
2022-09-03T21:28:01.835Z,13.23
2022-09-03T21:30:34.127Z,17.57
2022-09-03T21:33:22.624Z,19.23
2022-09-03T21:36:10.441Z,17.52
2022-09-03T21:38:42.505Z,17.05
2022-09-03T21:41:33.821Z,19.38
2022-09-03T21:44:33.589Z,19.42
2022-09-03T21:47:18.342Z,17.48
2022-09-03T21:50:16.801Z,18.13
2022-09-03T21:53:08.020Z,21.15
2022-09-03T21:55:59.313Z,18.27
2022-09-03T21:58:59.692Z,16.30
2022-09-03T22:01:59.746Z,10.88
2022-09-03T22:04:31.650Z,12.88
2022-09-03T22:07:30.601Z,10.05
2022-09-03T22:10:31.090Z,11.18
2022-09-03T22:13:16.927Z,12.18
2022-09-03T22:15:52.301Z,15.90
2022-09-03T22:18:29.536Z,13.55
2022-09-03T22:21:33.133Z,10.93
2022-09-03T22:24:27.189Z,12.02
2022-09-03T22:27:13.137Z,15.15
2022-09-03T22:30:06.137Z,14.30
2022-09-03T22:33:17.314Z,14.32
2022-09-03T22:36:16.665Z,14.23
2022-09-03T22:39:14.396Z,18.67
2022-09-03T22:42:10.077Z,24.70
2022-09-03T22:45:15.303Z,18.73
2022-09-03T22:48:24.525Z,14.93
2022-09-03T22:51:02.287Z,15.07
2022-09-03T22:53:45.866Z,15.32
2022-09-03T22:56:23.980Z,16.40
2022-09-03T22:59:16.537Z,14.75
2022-09-03T23:01:59.555Z,17.55
2022-09-03T23:04:52.096Z,14.63
2022-09-03T23:07:29.673Z,16.42
2022-09-03T23:10:07.334Z,16.45
2022-09-03T23:12:50.561Z,14.75
2022-09-03T23:15:31.396Z,18.23
2022-09-03T23:18:19.584Z,18.98
2022-09-03T23:21:01.295Z,18.73
2022-09-03T23:23:38.807Z,15.77
2022-09-03T23:26:23.670Z,20.75
2022-09-03T23:29:02.321Z,17.40
2022-09-03T23:31:32.750Z,19.90
2022-09-03T23:34:03.501Z,15.25
2022-09-03T23:37:22.325Z,19.70
2022-09-03T23:40:21.654Z,17.85
2022-09-03T23:43:21.842Z,19.65
2022-09-03T23:46:16.750Z,20.98
2022-09-03T23:49:25.889Z,20.35
2022-09-03T23:52:20.253Z,18.90
2022-09-03T23:55:01.488Z,17.02
2022-09-03T23:57:43.025Z,19.23
